createdAt,value
2022-12-06T00:01:29.319Z,5.57
2022-12-06T00:06:33.632Z,5.03
2022-12-06T00:11:37.209Z,5.47
2022-12-06T00:16:39.440Z,6.40
2022-12-06T00:21:41.763Z,6.70
2022-12-06T00:26:46.326Z,5.65
2022-12-06T00:31:49.716Z,5.85
2022-12-06T00:36:52.008Z,7.13
2022-12-06T00:41:55.853Z,7.45
2022-12-06T00:46:58.039Z,6.00
2022-12-06T00:52:00.202Z,7.05
2022-12-06T00:57:02.202Z,7.63
2022-12-06T01:02:04.263Z,6.28
2022-12-06T01:07:06.419Z,6.88
2022-12-06T01:12:08.524Z,6.97
2022-12-06T01:17:10.658Z,6.53
2022-12-06T01:22:12.660Z,6.82
2022-12-06T01:27:14.707Z,7.72
2022-12-06T01:32:16.738Z,7.53
2022-12-06T01:37:19.288Z,6.47
2022-12-06T01:42:21.594Z,7.00
2022-12-06T01:47:28.351Z,6.18
2022-12-06T01:52:51.690Z,7.28
2022-12-06T01:57:58.710Z,6.40
2022-12-06T02:03:01.805Z,6.00
2022-12-06T02:08:04.816Z,6.47
2022-12-06T02:13:07.839Z,6.28
2022-12-06T02:18:15.971Z,6.60
2022-12-06T02:23:43.761Z,7.43
2022-12-06T02:28:48.482Z,6.72
2022-12-06T02:33:52.093Z,6.10
2022-12-06T02:38:59.860Z,6.90
2022-12-06T02:44:08.029Z,6.72
2022-12-06T02:49:13.226Z,6.28
2022-12-06T02:54:16.926Z,6.32
2022-12-06T02:59:18.889Z,6.22
2022-12-06T03:04:47.502Z,6.10
2022-12-06T03:10:22.665Z,6.15
2022-12-06T03:15:52.485Z,5.65
2022-12-06T03:20:58.691Z,6.03
2022-12-06T03:26:02.480Z,6.10
2022-12-06T03:31:10.517Z,5.75
2022-12-06T03:36:14.564Z,5.90
2022-12-06T03:41:18.434Z,5.53
2022-12-06T03:46:27.941Z,5.25
2022-12-06T03:51:34.306Z,5.20
2022-12-06T03:56:38.537Z,5.70
2022-12-06T04:01:40.820Z,4.90
2022-12-06T04:06:42.906Z,6.30
2022-12-06T04:11:44.918Z,5.95
2022-12-06T04:17:05.613Z,6.30
2022-12-06T04:22:26.318Z,6.18
2022-12-06T04:27:51.483Z,5.93
2022-12-06T04:33:12.044Z,5.68
2022-12-06T04:38:32.517Z,6.63
2022-12-06T04:43:43.157Z,5.63
2022-12-06T04:48:45.350Z,5.65
2022-12-06T04:53:47.935Z,5.30
2022-12-06T04:58:50.051Z,5.57
2022-12-06T05:03:52.111Z,5.78
2022-12-06T05:08:54.323Z,5.55
2022-12-06T05:13:56.430Z,5.15
2022-12-06T05:18:58.599Z,5.50
2022-12-06T05:24:00.708Z,5.13
2022-12-06T05:29:02.790Z,5.25
2022-12-06T05:34:04.779Z,4.80
2022-12-06T05:39:06.844Z,5.18
2022-12-06T05:44:12.212Z,5.18
2022-12-06T05:49:14.237Z,5.15
2022-12-06T05:54:16.209Z,5.10
2022-12-06T05:59:18.274Z,4.93
2022-12-06T06:04:20.260Z,5.10
2022-12-06T06:09:23.631Z,5.20
2022-12-06T06:14:25.659Z,4.55
2022-12-06T06:19:27.740Z,4.85
2022-12-06T06:24:36.186Z,4.20
2022-12-06T06:29:42.160Z,4.40
2022-12-06T06:34:47.066Z,4.80
2022-12-06T06:39:49.200Z,4.57
2022-12-06T06:44:54.471Z,4.03
2022-12-06T06:49:56.538Z,4.30
2022-12-06T06:54:59.083Z,4.25
2022-12-06T07:00:01.887Z,4.43
2022-12-06T07:05:04.356Z,4.78
2022-12-06T07:10:07.173Z,4.13
2022-12-06T07:15:09.592Z,4.57
2022-12-06T07:20:11.774Z,3.95
2022-12-06T07:25:13.891Z,3.80
2022-12-06T07:30:17.711Z,3.90
2022-12-06T07:35:21.331Z,4.38
2022-12-06T07:40:41.229Z,4.18
2022-12-06T07:45:45.448Z,5.43
2022-12-06T07:50:47.606Z,4.43
2022-12-06T07:55:49.612Z,4.47
2022-12-06T08:00:51.636Z,4.40
2022-12-06T08:05:55.638Z,4.25
2022-12-06T08:11:02.281Z,4.22
2022-12-06T08:16:09.278Z,4.28
2022-12-06T08:21:12.005Z,4.47
2022-12-06T08:26:16.456Z,4.60
2022-12-06T08:31:21.476Z,3.83
2022-12-06T08:36:24.522Z,4.32
2022-12-06T08:41:45.866Z,4.47
2022-12-06T08:46:48.896Z,4.60
2022-12-06T08:51:51.993Z,4.60
2022-12-06T08:56:54.411Z,4.25
2022-12-06T09:01:56.475Z,4.68
2022-12-06T09:06:58.537Z,4.78
2022-12-06T09:12:00.597Z,4.03
2022-12-06T09:17:02.583Z,4.72
2022-12-06T09:22:04.998Z,4.80
2022-12-06T09:27:06.963Z,4.00
2022-12-06T09:32:08.943Z,4.47
2022-12-06T09:37:13.391Z,4.20
2022-12-06T09:42:41.973Z,4.32
2022-12-06T09:48:19.587Z,4.18
2022-12-06T09:53:40.401Z,4.05
2022-12-06T09:59:11.451Z,3.75
2022-12-06T10:04:13.423Z,3.80
2022-12-06T10:09:34.284Z,3.45
2022-12-06T10:14:53.726Z,3.03
2022-12-06T10:20:37.155Z,3.20
2022-12-06T10:25:41.052Z,3.03
2022-12-06T10:31:08.667Z,3.08
2022-12-06T10:36:16.127Z,3.20
2022-12-06T10:41:40.211Z,3.28
2022-12-06T10:47:06.588Z,3.13
2022-12-06T10:52:27.802Z,3.20
2022-12-06T10:57:48.517Z,2.92
2022-12-06T11:03:16.859Z,2.95
2022-12-06T11:08:24.965Z,2.42
2022-12-06T11:13:53.319Z,2.83
2022-12-06T11:19:11.054Z,2.38
2022-12-06T11:24:15.954Z,2.95
2022-12-06T11:29:18.317Z,2.20
2022-12-06T11:34:28.627Z,2.00
2022-12-06T11:39:31.559Z,2.07
2022-12-06T11:44:49.955Z,1.90
2022-12-06T11:49:55.342Z,3.03
2022-12-06T11:55:02.354Z,2.50
2022-12-06T12:00:25.206Z,3.22
2022-12-06T12:05:34.295Z,2.88
2022-12-06T12:10:39.013Z,3.08
2022-12-06T12:15:51.140Z,2.28
2022-12-06T12:20:54.803Z,2.65
2022-12-06T12:26:05.006Z,2.53
2022-12-06T12:31:24.558Z,2.60
2022-12-06T12:36:29.117Z,1.85
2022-12-06T12:41:37.865Z,1.70
2022-12-06T12:46:44.422Z,1.90
2022-12-06T12:51:48.628Z,1.95
2022-12-06T12:56:51.754Z,2.05
2022-12-06T13:02:17.485Z,1.77
2022-12-06T13:07:29.908Z,2.00
2022-12-06T13:12:44.808Z,1.60
2022-12-06T13:18:00.671Z,1.55
2022-12-06T13:23:13.289Z,2.05
2022-12-06T13:28:25.983Z,2.03
2022-12-06T13:33:31.908Z,2.20
2022-12-06T13:38:39.147Z,2.10
2022-12-06T13:43:41.107Z,2.17
2022-12-06T13:48:56.360Z,1.73
2022-12-06T13:54:04.496Z,2.47
2022-12-06T13:59:12.670Z,2.83
2022-12-06T14:04:23.790Z,2.15
2022-12-06T14:09:41.337Z,2.45
2022-12-06T14:14:43.842Z,2.45
2022-12-06T14:19:48.703Z,1.90
2022-12-06T14:25:18.709Z,2.20
2022-12-06T14:30:25.530Z,2.33
2022-12-06T14:35:35.598Z,2.00
2022-12-06T14:40:58.758Z,2.17
2022-12-06T14:46:03.964Z,2.10
2022-12-06T14:51:06.189Z,2.25
2022-12-06T14:56:34.508Z,1.92
2022-12-06T15:01:47.149Z,3.00
2022-12-06T15:06:55.276Z,2.63
2022-12-06T15:12:46.159Z,2.75
2022-12-06T15:17:48.633Z,1.92
2022-12-06T15:22:50.615Z,2.67
2022-12-06T15:27:52.743Z,8.82
2022-12-06T15:32:54.784Z,7.38
2022-12-06T15:37:56.867Z,4.97
2022-12-06T15:43:02.337Z,3.47
2022-12-06T15:48:05.384Z,14.30
2022-12-06T15:53:13.430Z,9.57
2022-12-06T15:58:15.974Z,8.30
2022-12-06T16:03:18.254Z,2.53
2022-12-06T16:08:20.338Z,2.05
2022-12-06T16:13:23.346Z,2.53
2022-12-06T16:18:25.955Z,3.03
2022-12-06T16:29:20.761Z,3.20
2022-12-06T16:34:23.073Z,5.43
2022-12-06T16:39:25.768Z,7.53
2022-12-06T16:44:27.813Z,5.35
2022-12-06T16:49:47.872Z,4.18
2022-12-06T16:54:50.764Z,3.50
2022-12-06T16:59:52.819Z,4.25
2022-12-06T17:04:56.110Z,8.88
2022-12-06T17:09:58.213Z,3.55
2022-12-06T17:15:00.875Z,3.35
2022-12-06T17:20:03.546Z,4.05
2022-12-06T17:25:06.493Z,4.35
2022-12-06T17:30:13.299Z,3.30
2022-12-06T17:35:15.489Z,4.55
2022-12-06T17:40:20.912Z,3.65
2022-12-06T17:45:24.871Z,4.30
2022-12-06T17:50:27.079Z,3.85
2022-12-06T17:55:29.123Z,3.70
2022-12-06T18:00:31.182Z,3.30
2022-12-06T18:05:34.392Z,4.57
2022-12-06T18:10:36.652Z,4.55
2022-12-06T18:15:38.664Z,4.63
2022-12-06T18:20:42.972Z,4.35
2022-12-06T18:25:45.089Z,5.13
2022-12-06T18:30:47.171Z,5.20
2022-12-06T18:35:52.858Z,4.95
2022-12-06T18:41:02.750Z,4.50
2022-12-06T18:46:10.653Z,5.28
2022-12-06T18:51:15.950Z,5.28
2022-12-06T18:56:20.404Z,5.72
2022-12-06T19:01:26.330Z,5.22
2022-12-06T19:06:31.558Z,5.68
2022-12-06T19:11:37.610Z,5.22
2022-12-06T19:16:45.849Z,5.80
2022-12-06T19:21:49.718Z,6.70
2022-12-06T19:26:52.690Z,7.53
2022-12-06T19:31:55.154Z,7.88
2022-12-06T19:36:57.762Z,7.63
2022-12-06T19:42:18.367Z,8.85
2022-12-06T19:47:20.365Z,8.47
2022-12-06T19:52:26.595Z,7.13
2022-12-06T19:57:32.675Z,7.53
2022-12-06T20:02:34.910Z,7.55
2022-12-06T20:07:37.174Z,7.80
2022-12-06T20:12:39.506Z,7.68
2022-12-06T20:17:41.693Z,7.88
2022-12-06T20:22:43.746Z,7.45
2022-12-06T20:27:51.649Z,7.53
2022-12-06T20:32:53.878Z,6.60
2022-12-06T20:37:56.106Z,7.30
2022-12-06T20:42:58.366Z,6.57
2022-12-06T20:48:00.731Z,6.47
2022-12-06T20:53:03.049Z,7.03
2022-12-06T20:58:05.180Z,6.90
2022-12-06T21:03:07.404Z,7.32
2022-12-06T21:08:09.786Z,6.90
2022-12-06T21:13:11.931Z,6.70
2022-12-06T21:18:18.798Z,7.53
2022-12-06T21:23:22.110Z,8.35
2022-12-06T21:28:24.160Z,8.48
2022-12-06T21:33:26.467Z,8.35
2022-12-06T21:38:32.765Z,8.52
2022-12-06T21:43:36.052Z,8.63
2022-12-06T21:48:38.782Z,8.80
2022-12-06T21:53:41.158Z,9.30
2022-12-06T21:58:43.315Z,8.90
2022-12-06T22:03:49.857Z,9.07
2022-12-06T22:09:04.024Z,9.27
2022-12-06T22:14:07.761Z,9.43
2022-12-06T22:19:09.831Z,8.32
2022-12-06T22:24:11.895Z,8.23
2022-12-06T22:29:14.330Z,8.15
2022-12-06T22:34:16.359Z,8.32
2022-12-06T22:39:19.353Z,8.48
2022-12-06T22:44:21.542Z,7.70
2022-12-06T22:49:23.666Z,7.68
2022-12-06T22:54:25.702Z,7.30
2022-12-06T22:59:27.710Z,7.88
2022-12-06T23:04:30.581Z,7.55
2022-12-06T23:09:32.649Z,6.85
2022-12-06T23:14:34.644Z,7.13
2022-12-06T23:19:36.650Z,6.40
2022-12-06T23:24:38.782Z,5.97
2022-12-06T23:29:40.946Z,6.05
2022-12-06T23:34:43.095Z,5.63
2022-12-06T23:39:45.757Z,5.45
2022-12-06T23:44:47.918Z,5.65
2022-12-06T23:49:50.047Z,6.40
2022-12-06T23:54:52.146Z,5.72
2022-12-06T23:59:54.122Z,5.95
